SAAP/PRA METAR and TAF weather

Enter ICAO airport designator
Station Type Date Time Source
SAAP METAR 2019/05/27 04:22 UTC NOAA

SAAP 270422Z 29006KT 3000 BR NSC 16/15 Q1013 REFG


Station Type Date Time Source
SAAP Decoded METAR 2019/05/27 04:22 UTC NOAA

Parana Aerodrome, Argentina (SAAP) 31-47S 060-29W 78M
May 27, 2019 - 12:22 AM EDT / 2019.05.27 0422 UTC
Wind: from the WNW (290 degrees) at 7 MPH (6 KT):0
Visibility: 1 mile(s):0
Weather: mist
Temperature: 60 F (16 C)
Dew Point: 59 F (15 C)
Relative Humidity: 93%
Pressure (altimeter): 29.91 in. Hg (1013 hPa)
ob: SAAP 270422Z 29006KT 3000 BR NSC 16/15 Q1013 REFG
cycle: 4

Station Type Date Time Source
SAAP TAF 2019/05/26 00:42 UTC NOAA

TAF TAF SAAP 262300Z 2700/2724 02005KT 7000 NSC TX20/2718Z TN11/2710Z
BECMG 2706/2708 VRB03KT 3000 BR BKN015 PROB30 2708/2712 0900 FG
BECMG 2713/2715 11005KT CAVOK

Example: see airport list